Time;durP1;ratioP1;P1;durP2;ratioP2;P2;SDS_P1;SDS_P2;PMS_P1;PMS_P2;Temp;Humidity;BMP_temperature;BMP_pressure;BME280_temperature;BME280_humidity;BME280_pressure;Samples;Min_cycle;Max_cycle;Signal;HPM_P1;HPM_P2
2024/01/04 00:01:26;;;;;;;;;;;16.00;57.50;;;;;;5094643;28;20324;-68
2024/01/04 00:03:52;;;;;;;;;;;16.00;57.60;;;;;;5128461;28;19923;-67
2024/01/04 00:06:19;;;;;;;;;;;16.00;57.60;;;;;;5112485;28;19920;-67
2024/01/04 00:08:51;;;;;;;;;;;16.00;57.70;;;;;;5094715;28;19926;-67
2024/01/04 00:11:17;;;;;;;;;;;16.00;57.80;;;;;;5094666;28;20014;-67
2024/01/04 00:13:42;;;;;;;;;;;16.00;57.80;;;;;;5094233;28;20007;-67
2024/01/04 00:16:11;;;;;;;;;;;15.90;57.80;;;;;;5094449;28;20332;-67
2024/01/04 00:18:37;;;;;;;;;;;15.90;57.80;;;;;;5112237;28;19923;-67
2024/01/04 00:21:05;;;;;;;;;;;15.90;57.80;;;;;;5094392;28;20324;-67
2024/01/04 00:23:35;;;;;;;;;;;15.90;57.80;;;;;;5094429;28;19924;-67
2024/01/04 00:26:00;;;;;;;;;;;15.90;57.80;;;;;;5112447;28;19920;-67
2024/01/04 00:28:26;;;;;;;;;;;15.90;57.80;;;;;;5093997;28;19968;-67
2024/01/04 00:30:51;;;;;;;;;;;15.90;57.80;;;;;;5128227;28;19924;-67
2024/01/04 00:33:17;;;;;;;;;;;15.90;57.80;;;;;;5093978;28;19920;-67
2024/01/04 00:35:42;;;;;;;;;;;16.10;57.90;;;;;;5111468;28;19919;-67
2024/01/04 00:38:08;;;;;;;;;;;16.60;57.00;;;;;;5111963;28;19928;-67
2024/01/04 00:40:39;;;;;;;;;;;16.90;56.00;;;;;;5112295;28;19980;-67
2024/01/04 00:43:04;;;;;;;;;;;17.40;55.00;;;;;;5112209;28;19924;-68
2024/01/04 00:45:30;;;;;;;;;;;18.00;53.80;;;;;;5112359;28;20018;-67
2024/01/04 00:47:59;;;;;;;;;;;18.60;52.40;;;;;;5097825;28;19920;-67
2024/01/04 00:50:24;;;;;;;;;;;19.10;51.10;;;;;;5098146;28;19992;-68
2024/01/04 00:52:49;;;;;;;;;;;19.80;49.70;;;;;;5115942;28;20390;-67
2024/01/04 00:55:15;;;;;;;;;;;20.50;48.60;;;;;;5097870;28;19927;-67
2024/01/04 00:57:41;;;;;;;;;;;21.10;47.20;;;;;;5097557;28;19927;-67
2024/01/04 01:00:06;;;;;;;;;;;21.70;45.90;;;;;;5097522;28;19943;-67
2024/01/04 01:02:33;;;;;;;;;;;22.30;45.00;;;;;;5115653;28;19972;-67
2024/01/04 01:04:58;;;;;;;;;;;22.80;43.90;;;;;;5115630;28;20027;-67
2024/01/04 01:07:24;;;;;;;;;;;23.20;43.20;;;;;;5097281;28;20029;-68
2024/01/04 01:09:49;;;;;;;;;;;23.60;42.60;;;;;;5097426;28;20318;-67
2024/01/04 01:12:15;;;;;;;;;;;23.80;42.10;;;;;;5097179;28;19969;-67
2024/01/04 01:14:41;;;;;;;;;;;24.00;42.00;;;;;;5097103;28;19926;-67
2024/01/04 01:17:06;;;;;;;;;;;24.00;41.80;;;;;;5131524;27;19927;-68
2024/01/04 01:19:32;;;;;;;;;;;23.90;41.70;;;;;;5115037;28;19920;-68
2024/01/04 01:21:57;;;;;;;;;;;23.80;41.80;;;;;;5097312;28;20189;-67
2024/01/04 01:24:23;;;;;;;;;;;23.70;42.00;;;;;;5097522;28;20014;-67
2024/01/04 01:26:49;;;;;;;;;;;23.60;42.10;;;;;;5096965;28;20401;-67
2024/01/04 01:29:14;;;;;;;;;;;23.50;42.40;;;;;;5130898;27;19919;-67
2024/01/04 01:31:40;;;;;;;;;;;23.30;42.50;;;;;;5096869;28;19920;-67
2024/01/04 01:34:06;;;;;;;;;;;23.20;42.80;;;;;;5115040;28;19973;-67
2024/01/04 01:36:32;;;;;;;;;;;23.00;42.90;;;;;;5096958;28;20398;-68
2024/01/04 01:38:57;;;;;;;;;;;22.90;43.10;;;;;;5096426;28;20427;-67
2024/01/04 01:41:23;;;;;;;;;;;22.70;43.40;;;;;;5096556;28;19927;-68
2024/01/04 01:43:48;;;;;;;;;;;22.50;43.70;;;;;;5096751;28;20028;-68
2024/01/04 01:46:14;;;;;;;;;;;22.30;44.00;;;;;;5096488;28;19941;-67
2024/01/04 01:48:42;;;;;;;;;;;22.10;44.30;;;;;;5131139;27;20032;-67
2024/01/04 01:51:09;;;;;;;;;;;22.00;44.70;;;;;;5114573;28;19920;-68
2024/01/04 01:53:35;;;;;;;;;;;21.70;45.00;;;;;;5114686;28;20359;-68
2024/01/04 01:56:00;;;;;;;;;;;21.50;45.10;;;;;;5096504;28;20124;-67
2024/01/04 01:58:26;;;;;;;;;;;21.30;45.40;;;;;;5096443;28;19924;-67
2024/01/04 02:00:57;;;;;;;;;;;21.20;45.70;;;;;;5114430;28;19926;-67
2024/01/04 02:03:23;;;;;;;;;;;21.00;46.00;;;;;;5130709;27;19969;-67
2024/01/04 02:05:48;;;;;;;;;;;20.90;46.30;;;;;;5114295;28;20370;-67
2024/01/04 02:08:14;;;;;;;;;;;20.70;46.50;;;;;;5114422;28;20007;-67
2024/01/04 02:10:40;;;;;;;;;;;20.50;46.70;;;;;;5114430;28;20298;-67
2024/01/04 02:13:05;;;;;;;;;;;20.40;46.90;;;;;;5096454;28;19920;-67
2024/01/04 02:15:31;;;;;;;;;;;20.40;47.10;;;;;;5095944;28;19926;-69
2024/01/04 02:17:57;;;;;;;;;;;20.20;47.30;;;;;;5095919;28;19942;-67
2024/01/04 02:20:22;;;;;;;;;;;20.10;47.40;;;;;;5113921;28;19946;-67
2024/01/04 02:22:51;;;;;;;;;;;20.00;47.60;;;;;;5130301;27;19920;-67
2024/01/04 02:25:17;;;;;;;;;;;19.90;47.80;;;;;;5095675;28;20428;-67
2024/01/04 02:27:42;;;;;;;;;;;19.80;47.80;;;;;;5095974;28;19919;-67
2024/01/04 02:30:08;;;;;;;;;;;19.80;48.00;;;;;;5113866;28;20286;-67
2024/01/04 02:32:34;;;;;;;;;;;19.70;48.10;;;;;;5113874;28;19931;-67
2024/01/04 02:34:59;;;;;;;;;;;19.60;48.30;;;;;;5096249;28;20434;-67
2024/01/04 02:37:25;;;;;;;;;;;19.50;48.30;;;;;;5095960;28;19971;-67
2024/01/04 02:39:50;;;;;;;;;;;19.50;48.50;;;;;;5113460;28;19930;-67
2024/01/04 02:42:15;;;;;;;;;;;19.40;48.50;;;;;;5095421;28;20018;-67
2024/01/04 02:44:42;;;;;;;;;;;19.40;48.70;;;;;;5129772;27;20014;-67
2024/01/04 02:47:07;;;;;;;;;;;19.30;48.80;;;;;;5113575;28;19920;-67
2024/01/04 02:49:33;;;;;;;;;;;19.20;48.90;;;;;;5113646;28;19920;-67
2024/01/04 02:51:58;;;;;;;;;;;19.10;48.90;;;;;;5095184;28;19919;-67
2024/01/04 02:54:24;;;;;;;;;;;19.10;49.10;;;;;;5095232;28;19946;-67
2024/01/04 02:56:49;;;;;;;;;;;19.00;49.10;;;;;;5129266;27;20030;-67
2024/01/04 02:59:15;;;;;;;;;;;19.00;49.30;;;;;;5095569;28;20362;-67
2024/01/04 03:01:43;;;;;;;;;;;19.00;49.30;;;;;;5113309;28;20010;-67
2024/01/04 03:04:09;;;;;;;;;;;18.90;49.30;;;;;;5095416;28;19920;-67
2024/01/04 03:06:37;;;;;;;;;;;18.80;49.30;;;;;;5113546;28;19920;-67
2024/01/04 03:09:02;;;;;;;;;;;18.80;49.40;;;;;;5128735;27;19930;-67
2024/01/04 03:11:28;;;;;;;;;;;18.70;49.40;;;;;;5094953;28;20302;-67
2024/01/04 03:13:53;;;;;;;;;;;18.70;49.60;;;;;;5113141;28;19968;-67
2024/01/04 03:16:20;;;;;;;;;;;18.60;49.70;;;;;;5095158;28;19920;-67
2024/01/04 03:18:46;;;;;;;;;;;18.50;49.80;;;;;;5112937;28;20105;-68
2024/01/04 03:21:11;;;;;;;;;;;18.50;49.80;;;;;;5113106;28;19925;-67
2024/01/04 03:23:37;;;;;;;;;;;18.40;49.90;;;;;;5094664;28;19919;-67
2024/01/04 03:26:02;;;;;;;;;;;18.40;50.10;;;;;;5095026;28;19934;-67
2024/01/04 03:28:28;;;;;;;;;;;18.30;50.10;;;;;;5094933;28;19969;-67
2024/01/04 03:30:53;;;;;;;;;;;18.30;50.30;;;;;;5094732;28;19924;-67
2024/01/04 03:33:19;;;;;;;;;;;18.20;50.40;;;;;;5094910;28;19920;-67
2024/01/04 03:35:44;;;;;;;;;;;18.10;50.40;;;;;;5094592;28;19926;-67
2024/01/04 03:38:10;;;;;;;;;;;18.10;50.50;;;;;;5094474;28;20010;-67
2024/01/04 03:40:35;;;;;;;;;;;18.00;50.70;;;;;;5112727;28;20370;-67
2024/01/04 03:43:02;;;;;;;;;;;18.00;50.80;;;;;;5094747;28;20286;-67
2024/01/04 03:45:28;;;;;;;;;;;17.90;50.80;;;;;;5094459;28;19962;-67
2024/01/04 03:47:53;;;;;;;;;;;17.90;51.00;;;;;;5094772;28;19966;-67
2024/01/04 03:50:19;;;;;;;;;;;17.80;51.00;;;;;;5112738;28;20380;-67
2024/01/04 03:52:44;;;;;;;;;;;17.80;51.10;;;;;;5112637;28;20394;-67
2024/01/04 03:55:10;;;;;;;;;;;17.70;51.20;;;;;;5094639;28;19924;-67
2024/01/04 03:57:35;;;;;;;;;;;17.70;51.30;;;;;;5112770;28;20393;-67
2024/01/04 04:00:02;;;;;;;;;;;17.60;51.30;;;;;;5094222;28;19920;-67
2024/01/04 04:02:27;;;;;;;;;;;17.60;51.50;;;;;;5094802;28;19927;-67
2024/01/04 04:04:56;;;;;;;;;;;17.50;51.50;;;;;;5094613;28;20272;-67
2024/01/04 04:07:22;;;;;;;;;;;17.50;51.60;;;;;;5094334;28;19919;-68
2024/01/04 04:09:47;;;;;;;;;;;17.40;51.60;;;;;;5093576;28;20274;-67
2024/01/04 04:12:13;;;;;;;;;;;17.40;51.70;;;;;;5094601;28;19990;-67
2024/01/04 04:14:40;;;;;;;;;;;17.30;51.80;;;;;;5128656;28;19920;-67
2024/01/04 04:17:06;;;;;;;;;;;17.30;51.90;;;;;;5094197;28;20011;-68
2024/01/04 04:19:31;;;;;;;;;;;17.30;52.10;;;;;;5094412;28;20027;-67
2024/01/04 04:21:57;;;;;;;;;;;17.20;52.20;;;;;;5097160;28;20391;-67
2024/01/04 04:24:24;;;;;;;;;;;17.10;52.20;;;;;;5098345;28;19926;-68
2024/01/04 04:26:49;;;;;;;;;;;17.10;52.40;;;;;;5098376;28;19963;-67
2024/01/04 04:29:15;;;;;;;;;;;17.00;52.50;;;;;;5116605;28;19977;-67
2024/01/04 04:31:40;;;;;;;;;;;17.00;52.60;;;;;;5116377;28;19972;-67
2024/01/04 04:34:06;;;;;;;;;;;17.00;53.00;;;;;;5098292;28;20397;-67
2024/01/04 04:36:32;;;;;;;;;;;16.90;52.80;;;;;;5097828;28;19920;-67
2024/01/04 04:39:00;;;;;;;;;;;16.80;53.00;;;;;;5115756;28;20033;-68
2024/01/04 04:41:26;;;;;;;;;;;16.80;53.20;;;;;;5097546;28;19926;-68
2024/01/04 04:43:52;;;;;;;;;;;16.70;53.20;;;;;;5098048;28;20278;-67
2024/01/04 04:46:18;;;;;;;;;;;16.70;53.30;;;;;;5097672;28;20453;-67
2024/01/04 04:48:44;;;;;;;;;;;16.70;53.30;;;;;;5097690;28;19930;-67
2024/01/04 04:51:10;;;;;;;;;;;16.70;53.40;;;;;;5097891;28;19973;-67
2024/01/04 04:53:35;;;;;;;;;;;16.70;53.50;;;;;;5116290;28;19924;-67
2024/01/04 04:56:01;;;;;;;;;;;16.60;53.50;;;;;;5131729;27;20006;-67
2024/01/04 04:58:27;;;;;;;;;;;16.50;53.60;;;;;;5097695;28;19920;-67
2024/01/04 05:00:53;;;;;;;;;;;16.50;53.70;;;;;;5097317;28;19968;-67
2024/01/04 05:03:19;;;;;;;;;;;16.40;53.70;;;;;;5115785;28;19920;-67
2024/01/04 05:05:45;;;;;;;;;;;16.50;53.80;;;;;;5115982;28;20019;-67
2024/01/04 05:08:10;;;;;;;;;;;16.40;53.80;;;;;;5115647;28;19920;-67
2024/01/04 05:10:36;;;;;;;;;;;16.40;53.90;;;;;;5115477;28;20260;-68
2024/01/04 05:13:02;;;;;;;;;;;16.40;53.90;;;;;;5097438;28;19920;-67
2024/01/04 05:15:30;;;;;;;;;;;16.40;54.00;;;;;;5131604;27;19926;-67
2024/01/04 05:17:56;;;;;;;;;;;16.40;54.70;;;;;;5131273;27;20282;-67
2024/01/04 05:20:21;;;;;;;;;;;16.40;54.00;;;;;;5115399;28;20042;-67
2024/01/04 05:22:47;;;;;;;;;;;16.30;53.90;;;;;;5097252;28;19927;-67
2024/01/04 05:25:13;;;;;;;;;;;16.30;54.00;;;;;;5115144;28;19919;-67
2024/01/04 05:27:38;;;;;;;;;;;16.30;54.10;;;;;;5131255;27;19920;-67
2024/01/04 05:30:07;;;;;;;;;;;16.30;54.20;;;;;;5131117;27;19924;-67
2024/01/04 05:32:33;;;;;;;;;;;16.20;54.20;;;;;;5114924;28;19919;-67
2024/01/04 05:34:59;;;;;;;;;;;16.20;54.20;;;;;;5131239;27;19920;-67
2024/01/04 05:37:24;;;;;;;;;;;16.20;54.20;;;;;;5096685;28;19920;-67
2024/01/04 05:39:50;;;;;;;;;;;16.20;54.20;;;;;;5077530;28;19924;-67
2024/01/04 05:42:15;;;;;;;;;;;16.20;54.20;;;;;;5094351;28;19920;-67
2024/01/04 05:44:41;;;;;;;;;;;16.20;54.20;;;;;;5076532;28;19927;-67
2024/01/04 05:47:07;;;;;;;;;;;16.70;53.90;;;;;;5077042;28;19920;-67
2024/01/04 05:49:32;;;;;;;;;;;17.10;52.90;;;;;;5076604;28;19959;-67
2024/01/04 05:51:58;;;;;;;;;;;17.40;52.00;;;;;;5109988;28;20399;-67
2024/01/04 05:54:23;;;;;;;;;;;17.90;51.00;;;;;;5076363;28;20014;-67
2024/01/04 05:56:49;;;;;;;;;;;18.50;49.90;;;;;;5075914;28;20048;-67
2024/01/04 05:59:14;;;;;;;;;;;19.00;48.70;;;;;;5076016;28;19931;-67
2024/01/04 06:01:40;;;;;;;;;;;19.70;47.50;;;;;;5076221;28;19926;-67
2024/01/04 06:04:05;;;;;;;;;;;20.30;46.40;;;;;;5076001;28;19927;-67
2024/01/04 06:06:31;;;;;;;;;;;21.00;45.20;;;;;;5076182;28;19920;-67
2024/01/04 06:08:57;;;;;;;;;;;21.50;44.00;;;;;;5076020;28;20010;-68
2024/01/04 06:11:22;;;;;;;;;;;22.20;43.00;;;;;;5109885;28;20402;-67
2024/01/04 06:13:48;;;;;;;;;;;22.70;42.00;;;;;;5075553;28;19947;-67
2024/01/04 06:16:13;;;;;;;;;;;23.10;41.30;;;;;;5094287;28;19924;-68
2024/01/04 06:18:39;;;;;;;;;;;23.50;40.70;;;;;;5093838;28;20461;-68
2024/01/04 06:21:05;;;;;;;;;;;23.90;40.20;;;;;;5075627;28;19927;-68
2024/01/04 06:23:31;;;;;;;;;;;24.10;39.70;;;;;;5075733;28;19920;-67
2024/01/04 06:25:57;;;;;;;;;;;24.20;39.30;;;;;;5075472;28;20414;-67
2024/01/04 06:28:23;;;;;;;;;;;24.20;39.30;;;;;;5075357;28;20439;-68
2024/01/04 06:30:48;;;;;;;;;;;24.10;39.20;;;;;;5075880;28;20018;-67
2024/01/04 06:33:14;;;;;;;;;;;24.00;39.40;;;;;;5075202;28;19924;-67
2024/01/04 06:35:40;;;;;;;;;;;23.90;39.50;;;;;;5075430;28;19920;-67
2024/01/04 06:38:12;;;;;;;;;;;23.80;39.70;;;;;;5079234;28;19924;-67
2024/01/04 06:40:38;;;;;;;;;;;23.60;39.90;;;;;;5132319;27;20391;-67
2024/01/04 06:43:08;;;;;;;;;;;23.50;40.20;;;;;;5115798;27;19923;-67
2024/01/04 06:45:35;;;;;;;;;;;23.30;40.50;;;;;;5134295;27;20297;-67
2024/01/04 06:48:00;;;;;;;;;;;23.20;40.70;;;;;;5134239;27;19967;-67
2024/01/04 06:50:26;;;;;;;;;;;22.90;40.90;;;;;;5134177;27;20302;-68
2024/01/04 06:52:52;;;;;;;;;;;22.70;41.10;;;;;;5116021;27;19942;-67
2024/01/04 06:55:18;;;;;;;;;;;22.60;41.40;;;;;;5115859;27;20366;-67
2024/01/04 06:57:44;;;;;;;;;;;22.40;41.70;;;;;;5115807;27;20342;-67
2024/01/04 07:00:09;;;;;;;;;;;22.20;42.00;;;;;;5115533;27;19923;-68
2024/01/04 07:02:35;;;;;;;;;;;22.00;42.30;;;;;;5134044;27;20392;-67
2024/01/04 07:05:05;;;;;;;;;;;21.70;42.50;;;;;;5115708;27;19968;-67
2024/01/04 07:07:31;;;;;;;;;;;21.50;42.80;;;;;;5133821;27;19919;-68
2024/01/04 07:09:57;;;;;;;;;;;21.30;43.00;;;;;;5133662;27;19926;-67
2024/01/04 07:12:23;;;;;;;;;;;21.20;43.30;;;;;;5115264;27;19927;-68
2024/01/04 07:14:49;;;;;;;;;;;21.00;43.60;;;;;;5133793;27;19923;-68
2024/01/04 07:17:16;;;;;;;;;;;20.80;43.80;;;;;;5115651;27;19973;-68
2024/01/04 07:19:42;;;;;;;;;;;20.70;44.10;;;;;;5115354;28;19923;-67
2024/01/04 07:22:10;;;;;;;;;;;20.60;44.40;;;;;;5115528;27;19965;-67
2024/01/04 07:24:35;;;;;;;;;;;20.50;44.40;;;;;;5115507;27;19972;-67
2024/01/04 07:27:01;;;;;;;;;;;20.30;44.60;;;;;;5115103;27;20324;-67
2024/01/04 07:29:27;;;;;;;;;;;20.30;44.80;;;;;;5115293;27;19919;-68
2024/01/04 07:31:54;;;;;;;;;;;20.10;44.90;;;;;;5133321;27;20374;-67
2024/01/04 07:34:21;;;;;;;;;;;20.00;45.10;;;;;;5115146;28;19927;-67
2024/01/04 07:36:46;;;;;;;;;;;20.00;45.20;;;;;;5115199;27;19919;-67
2024/01/04 07:39:12;;;;;;;;;;;19.90;45.30;;;;;;5133097;27;19974;-67
2024/01/04 07:41:37;;;;;;;;;;;19.80;45.30;;;;;;5114863;28;19927;-67
2024/01/04 07:44:03;;;;;;;;;;;19.70;45.50;;;;;;5133228;28;20055;-67
2024/01/04 07:46:30;;;;;;;;;;;19.60;45.60;;;;;;5133533;28;20435;-67
2024/01/04 07:48:56;;;;;;;;;;;19.60;45.70;;;;;;5115199;28;19926;-67
2024/01/04 07:51:22;;;;;;;;;;;19.50;45.80;;;;;;5114842;28;19920;-67
2024/01/04 07:53:47;;;;;;;;;;;19.50;46.00;;;;;;5133228;28;19926;-67
2024/01/04 07:56:13;;;;;;;;;;;19.40;46.00;;;;;;5117971;27;19920;-67
2024/01/04 07:58:38;;;;;;;;;;;19.30;46.10;;;;;;5137365;27;19931;-67
2024/01/04 08:01:04;;;;;;;;;;;19.30;46.20;;;;;;5119436;27;19923;-67
2024/01/04 08:03:30;;;;;;;;;;;19.20;46.20;;;;;;5137564;27;20006;-67
2024/01/04 08:05:56;;;;;;;;;;;19.20;46.30;;;;;;5119052;27;19968;-67
2024/01/04 08:08:21;;;;;;;;;;;19.10;46.30;;;;;;5119238;27;20311;-68
2024/01/04 08:10:47;;;;;;;;;;;19.10;46.40;;;;;;5137330;27;20454;-67
2024/01/04 08:13:16;;;;;;;;;;;19.00;46.50;;;;;;5119053;27;20002;-67
2024/01/04 08:15:42;;;;;;;;;;;18.90;46.50;;;;;;5118650;27;19919;-67
2024/01/04 08:18:07;;;;;;;;;;;18.90;46.70;;;;;;5118914;27;19954;-67
2024/01/04 08:20:33;;;;;;;;;;;18.80;46.70;;;;;;5137068;27;20027;-67
2024/01/04 08:22:59;;;;;;;;;;;18.80;46.90;;;;;;5118592;27;19920;-67
2024/01/04 08:25:24;;;;;;;;;;;18.70;47.00;;;;;;5137069;27;19920;-67
2024/01/04 08:27:50;;;;;;;;;;;18.60;47.10;;;;;;5118751;27;19927;-67
2024/01/04 08:30:15;;;;;;;;;;;18.60;47.20;;;;;;5118773;27;19975;-67
2024/01/04 08:32:41;;;;;;;;;;;18.50;47.30;;;;;;5118679;27;20014;-67
2024/01/04 08:35:07;;;;;;;;;;;18.50;47.50;;;;;;5137016;27;20104;-67
2024/01/04 08:37:35;;;;;;;;;;;18.40;47.50;;;;;;5136571;27;20010;-67
2024/01/04 08:40:01;;;;;;;;;;;18.30;47.60;;;;;;5116989;27;20362;-66
2024/01/04 08:42:26;;;;;;;;;;;18.30;47.60;;;;;;5118089;27;19923;-66
2024/01/04 08:44:52;;;;;;;;;;;18.20;47.70;;;;;;5136821;27;19951;-66
2024/01/04 08:47:17;;;;;;;;;;;18.00;47.70;;;;;;5117920;27;19974;-66
2024/01/04 08:49:43;;;;;;;;;;;17.90;47.90;;;;;;5118057;27;19920;-66
2024/01/04 08:52:08;;;;;;;;;;;17.80;48.10;;;;;;5117878;27;19982;-67
2024/01/04 08:54:34;;;;;;;;;;;17.70;48.40;;;;;;5136353;27;20473;-66
2024/01/04 08:56:59;;;;;;;;;;;17.60;48.60;;;;;;5136270;27;20297;-67
2024/01/04 08:59:25;;;;;;;;;;;17.50;48.70;;;;;;5135946;27;19930;-68
2024/01/04 09:01:51;;;;;;;;;;;17.50;49.00;;;;;;5116131;27;20324;-68
2024/01/04 09:04:18;;;;;;;;;;;17.40;49.10;;;;;;5117433;27;19919;-68
2024/01/04 09:06:44;;;;;;;;;;;17.40;49.20;;;;;;5117393;27;20275;-68
2024/01/04 09:09:10;;;;;;;;;;;17.40;49.30;;;;;;5117670;27;19926;-68
2024/01/04 09:11:40;;;;;;;;;;;17.40;49.30;;;;;;5117738;27;19926;-68
2024/01/04 09:14:07;;;;;;;;;;;17.40;49.40;;;;;;5135668;27;19926;-68
2024/01/04 09:16:34;;;;;;;;;;;17.40;49.40;;;;;;5135726;27;19927;-69
2024/01/04 09:19:00;;;;;;;;;;;17.30;49.40;;;;;;5116972;27;19969;-69
2024/01/04 09:21:26;;;;;;;;;;;17.30;49.40;;;;;;5135752;27;20019;-68
2024/01/04 09:23:52;;;;;;;;;;;17.20;49.40;;;;;;5135580;27;19919;-69
2024/01/04 09:26:18;;;;;;;;;;;17.30;49.60;;;;;;5131581;27;20420;-68
2024/01/04 09:28:44;;;;;;;;;;;17.60;49.20;;;;;;5097034;28;20023;-68
2024/01/04 09:31:09;;;;;;;;;;;18.00;48.40;;;;;;5115056;28;20020;-68
2024/01/04 09:33:35;;;;;;;;;;;18.20;47.80;;;;;;5097153;28;19920;-68
2024/01/04 09:36:00;;;;;;;;;;;18.40;47.20;;;;;;5097130;28;19927;-68
2024/01/04 09:38:27;;;;;;;;;;;18.60;46.70;;;;;;5096622;28;20379;-68
2024/01/04 09:41:00;;;;;;;;;;;18.90;46.20;;;;;;5096553;28;19931;-68
2024/01/04 09:43:29;;;;;;;;;;;19.10;45.60;;;;;;5097046;28;19920;-68
2024/01/04 09:45:55;;;;;;;;;;;19.50;45.00;;;;;;5096821;28;20455;-68
2024/01/04 09:48:22;;;;;;;;;;;19.90;44.10;;;;;;5096926;28;20011;-68
2024/01/04 09:50:48;;;;;;;;;;;20.30;43.40;;;;;;5096755;28;19980;-68
2024/01/04 09:53:14;;;;;;;;;;;20.70;42.70;;;;;;5096719;28;20370;-68
2024/01/04 09:55:40;;;;;;;;;;;21.00;42.00;;;;;;5096337;28;20419;-68
2024/01/04 09:58:09;;;;;;;;;;;21.20;41.50;;;;;;5114563;28;19920;-68
2024/01/04 10:00:34;;;;;;;;;;;21.50;41.00;;;;;;5096436;28;19924;-68
2024/01/04 10:03:02;;;;;;;;;;;21.70;40.40;;;;;;5096555;28;19946;-68
2024/01/04 10:05:28;;;;;;;;;;;21.90;40.50;;;;;;5104346;27;19919;-68
2024/01/04 10:08:08;;;;;;;;;;;22.30;40.20;;;;;;5116529;27;19923;-68
2024/01/04 10:10:35;;;;;;;;;;;22.70;39.50;;;;;;5139917;27;19920;-65
2024/01/04 10:13:01;;;;;;;;;;;23.20;38.40;;;;;;5134347;27;20383;-67
2024/01/04 10:15:27;;;;;;;;;;;23.20;38.60;;;;;;5115500;27;19919;-69
2024/01/04 10:17:53;;;;;;;;;;;23.30;38.70;;;;;;5134333;27;20405;-68
2024/01/04 10:20:19;;;;;;;;;;;23.30;38.60;;;;;;5114997;27;20014;-68
2024/01/04 10:22:46;;;;;;;;;;;23.30;38.70;;;;;;5133952;27;20010;-68
2024/01/04 10:25:15;;;;;;;;;;;23.20;38.80;;;;;;5115569;27;19923;-68
2024/01/04 10:27:40;;;;;;;;;;;23.00;39.00;;;;;;5145047;27;19920;-68
2024/01/04 10:30:06;;;;;;;;;;;22.80;39.10;;;;;;5149311;27;19919;-68
2024/01/04 10:32:32;;;;;;;;;;;22.70;39.50;;;;;;5115733;27;20013;-68
2024/01/04 10:35:06;;;;;;;;;;;22.40;39.70;;;;;;5116089;27;19926;-68
2024/01/04 10:37:33;;;;;;;;;;;22.20;40.10;;;;;;5116641;27;19920;-70
2024/01/04 10:40:03;;;;;;;;;;;21.90;40.40;;;;;;5134050;27;20324;-68
2024/01/04 10:42:29;;;;;;;;;;;21.70;40.80;;;;;;5134143;27;20293;-68
2024/01/04 10:44:55;;;;;;;;;;;21.40;41.20;;;;;;5150301;27;19923;-68
2024/01/04 10:47:21;;;;;;;;;;;21.20;41.60;;;;;;5115748;27;19919;-68
2024/01/04 10:49:47;;;;;;;;;;;21.00;41.90;;;;;;5115254;27;19930;-68
2024/01/04 10:52:15;;;;;;;;;;;20.80;42.30;;;;;;5115693;27;19963;-68
2024/01/04 10:54:41;;;;;;;;;;;20.60;42.60;;;;;;5116058;27;20401;-68
2024/01/04 10:57:07;;;;;;;;;;;20.40;42.80;;;;;;5133885;27;19919;-68
2024/01/04 10:59:34;;;;;;;;;;;20.20;43.20;;;;;;5134128;27;19930;-68
2024/01/04 11:02:00;;;;;;;;;;;20.00;43.50;;;;;;5149983;27;19926;-68
2024/01/04 11:04:26;;;;;;;;;;;19.80;43.80;;;;;;5133919;27;19941;-68
2024/01/04 11:06:52;;;;;;;;;;;19.70;43.90;;;;;;5134152;27;19920;-68
2024/01/04 11:09:19;;;;;;;;;;;19.60;44.30;;;;;;5115364;27;20393;-68
2024/01/04 11:11:45;;;;;;;;;;;19.40;44.50;;;;;;5115724;27;20435;-68
2024/01/04 11:14:10;;;;;;;;;;;19.30;44.70;;;;;;5133674;27;19919;-68
2024/01/04 11:16:56;;;;;;;;;;;19.20;44.90;;;;;;5133828;27;19945;-68
2024/01/04 11:19:30;;;;;;;;;;;19.10;45.10;;;;;;5115159;27;20290;-69
2024/01/04 11:22:07;;;;;;;;;;;18.90;45.20;;;;;;5133739;27;19919;-68
2024/01/04 11:24:43;;;;;;;;;;;18.80;45.40;;;;;;5115146;27;20403;-68
2024/01/04 11:27:10;;;;;;;;;;;18.70;45.50;;;;;;5149913;27;19919;-68
2024/01/04 11:29:36;;;;;;;;;;;18.70;45.70;;;;;;5114923;27;19927;-68
2024/01/04 11:32:02;;;;;;;;;;;18.60;45.80;;;;;;5133582;27;19955;-68
2024/01/04 11:34:27;;;;;;;;;;;18.50;46.00;;;;;;5115382;28;20355;-68
2024/01/04 11:37:09;;;;;;;;;;;18.40;46.10;;;;;;5115111;28;19919;-68
2024/01/04 11:42:35;;;;;;;;;;;18.30;46.40;;;;;;5130732;27;19918;-68
2024/01/04 11:45:04;;;;;;;;;;;18.20;46.50;;;;;;5130801;27;20038;-69
2024/01/04 11:47:51;;;;;;;;;;;18.10;46.60;;;;;;5129993;28;20331;-68
2024/01/04 11:50:22;;;;;;;;;;;18.00;46.70;;;;;;5129684;28;19919;-68
2024/01/04 11:53:02;;;;;;;;;;;18.00;46.90;;;;;;5129332;28;20279;-68
2024/01/04 11:55:30;;;;;;;;;;;17.90;47.00;;;;;;5129274;28;19967;-68
2024/01/04 12:00:48;;;;;;;;;;;17.80;47.20;;;;;;5110310;27;19916;-68
2024/01/04 12:03:14;;;;;;;;;;;17.70;47.30;;;;;;5109426;28;19959;-68
2024/01/04 12:05:44;;;;;;;;;;;17.70;47.40;;;;;;5109185;28;19985;-67
2024/01/04 12:08:09;;;;;;;;;;;17.70;47.90;;;;;;5108905;28;20444;-67
2024/01/04 12:10:35;;;;;;;;;;;17.60;47.50;;;;;;5109320;28;19924;-67
2024/01/04 12:13:00;;;;;;;;;;;17.60;48.40;;;;;;5109631;28;19919;-68
2024/01/04 12:15:26;;;;;;;;;;;17.50;47.70;;;;;;5108965;28;20271;-69
2024/01/04 12:17:52;;;;;;;;;;;17.50;47.80;;;;;;5108720;28;20015;-68
2024/01/04 12:20:17;;;;;;;;;;;17.50;47.80;;;;;;5108546;28;19932;-68
2024/01/04 12:22:44;;;;;;;;;;;17.40;47.80;;;;;;5108947;28;19973;-68
2024/01/04 12:25:09;;;;;;;;;;;17.40;47.90;;;;;;5109764;28;20286;-70
2024/01/04 12:27:36;;;;;;;;;;;17.40;48.00;;;;;;5109714;28;19927;-68
2024/01/04 12:30:05;;;;;;;;;;;17.40;48.00;;;;;;5109962;28;20279;-68
2024/01/04 12:32:31;;;;;;;;;;;17.40;48.10;;;;;;5108887;28;19924;-68
2024/01/04 12:34:57;;;;;;;;;;;17.30;48.10;;;;;;5108513;28;20014;-68
2024/01/04 12:37:22;;;;;;;;;;;17.30;48.10;;;;;;5108240;28;20066;-68
2024/01/04 12:39:49;;;;;;;;;;;17.30;48.20;;;;;;5108315;28;20088;-69
2024/01/04 12:42:16;;;;;;;;;;;17.20;48.20;;;;;;5108167;28;19920;-68
2024/01/04 12:44:41;;;;;;;;;;;17.20;48.30;;;;;;5108557;28;19926;-68
2024/01/04 12:47:09;;;;;;;;;;;17.20;48.30;;;;;;5108380;28;20287;-68
2024/01/04 12:49:36;;;;;;;;;;;17.20;48.30;;;;;;5108195;28;19963;-68
2024/01/04 12:52:09;;;;;;;;;;;17.10;48.30;;;;;;5109260;28;20325;-68
2024/01/04 12:54:34;;;;;;;;;;;17.20;48.40;;;;;;5108257;28;19919;-68
2024/01/04 12:57:00;;;;;;;;;;;17.10;48.40;;;;;;5108157;28;19989;-68
2024/01/04 12:59:25;;;;;;;;;;;17.10;48.40;;;;;;5108995;28;19924;-67
2024/01/04 13:01:51;;;;;;;;;;;17.10;48.50;;;;;;5106668;28;19920;-68
2024/01/04 13:04:16;;;;;;;;;;;17.10;48.50;;;;;;5109123;28;20363;-68
2024/01/04 13:06:42;;;;;;;;;;;17.10;48.50;;;;;;5108145;28;19927;-68
2024/01/04 13:09:08;;;;;;;;;;;17.00;48.50;;;;;;5107210;28;19920;-68
2024/01/04 13:11:33;;;;;;;;;;;17.00;48.60;;;;;;5096535;28;19920;-68
2024/01/04 13:14:00;;;;;;;;;;;17.00;48.70;;;;;;5094983;28;20295;-68
2024/01/04 13:16:25;;;;;;;;;;;17.00;48.70;;;;;;5092393;28;19920;-69
2024/01/04 13:18:51;;;;;;;;;;;16.90;48.70;;;;;;5092594;28;19924;-68
2024/01/04 13:21:20;;;;;;;;;;;17.00;48.80;;;;;;5092173;28;19920;-68
2024/01/04 13:23:45;;;;;;;;;;;16.90;48.80;;;;;;5091826;28;19942;-68
2024/01/04 13:26:12;;;;;;;;;;;16.90;48.90;;;;;;5091823;28;19920;-68
2024/01/04 13:28:37;;;;;;;;;;;16.90;48.90;;;;;;5092280;28;19927;-68
2024/01/04 13:31:03;;;;;;;;;;;16.90;48.90;;;;;;5092869;28;19924;-68
2024/01/04 13:33:28;;;;;;;;;;;16.90;48.90;;;;;;5093909;28;19924;-68
2024/01/04 13:35:55;;;;;;;;;;;16.90;48.90;;;;;;5094027;28;19973;-68
2024/01/04 13:38:21;;;;;;;;;;;17.00;48.90;;;;;;5092894;28;19920;-69
2024/01/04 13:40:47;;;;;;;;;;;17.10;48.70;;;;;;5092943;28;19920;-68
2024/01/04 13:43:14;;;;;;;;;;;17.20;48.40;;;;;;5093391;28;20014;-68
2024/01/04 13:45:40;;;;;;;;;;;17.30;48.10;;;;;;5094488;28;20390;-68
2024/01/04 13:48:05;;;;;;;;;;;17.40;48.60;;;;;;5093604;28;19920;-68
2024/01/04 13:50:31;;;;;;;;;;;17.50;47.60;;;;;;5093205;28;19927;-67
2024/01/04 13:52:57;;;;;;;;;;;17.60;47.40;;;;;;5093935;28;19927;-68
2024/01/04 13:55:23;;;;;;;;;;;17.60;47.30;;;;;;5091949;28;20275;-68
2024/01/04 13:57:48;;;;;;;;;;;17.60;47.10;;;;;;5093309;28;19924;-68
2024/01/04 14:00:14;;;;;;;;;;;17.60;47.10;;;;;;5091734;28;19924;-68
2024/01/04 14:02:40;;;;;;;;;;;17.50;47.10;;;;;;5094007;28;19920;-68
2024/01/04 14:05:07;;;;;;;;;;;17.50;47.20;;;;;;5093912;28;19920;-68
2024/01/04 14:07:32;;;;;;;;;;;17.50;47.30;;;;;;5093207;28;19942;-68
2024/01/04 14:09:58;;;;;;;;;;;17.30;47.40;;;;;;5093088;28;20426;-67
2024/01/04 14:12:26;;;;;;;;;;;17.30;47.50;;;;;;5093729;28;19946;-67
2024/01/04 14:14:52;;;;;;;;;;;17.20;47.60;;;;;;5094070;28;19920;-68
2024/01/04 14:17:17;;;;;;;;;;;17.20;47.80;;;;;;5092803;28;20306;-69